sensor_id;sensor_type;location;lat;lon;timestamp;pressure;altitude;pressure_sealevel;temperature;humidity
54455;BME280;40364;52.270;10.546;2023-02-03T00:00:23;101042.59;;;13.23;88.07
54455;BME280;40364;52.270;10.546;2023-02-03T00:02:53;101030.38;;;12.13;96.13
54455;BME280;40364;52.270;10.546;2023-02-03T00:05:20;101024.16;;;13.34;90.40
54455;BME280;40364;52.270;10.546;2023-02-03T00:07:48;101035.50;;;13.78;85.72
54455;BME280;40364;52.270;10.546;2023-02-03T00:10:16;101023.19;;;13.67;85.17
54455;BME280;40364;52.270;10.546;2023-02-03T00:12:46;101017.72;;;12.85;92.94
54455;BME280;40364;52.270;10.546;2023-02-03T00:15:13;101013.09;;;13.26;89.08
54455;BME280;40364;52.270;10.546;2023-02-03T00:17:39;101010.81;;;12.46;95.03
54455;BME280;40364;52.270;10.546;2023-02-03T00:20:06;101021.81;;;13.48;89.54
54455;BME280;40364;52.270;10.546;2023-02-03T00:22:33;101004.66;;;12.65;98.40
54455;BME280;40364;52.270;10.546;2023-02-03T00:25:02;101005.03;;;12.30;100.00
54455;BME280;40364;52.270;10.546;2023-02-03T00:27:28;101000.94;;;12.16;100.00
54455;BME280;40364;52.270;10.546;2023-02-03T00:29:55;100997.53;;;12.43;100.00
54455;BME280;40364;52.270;10.546;2023-02-03T00:32:22;100996.88;;;12.82;98.59
54455;BME280;40364;52.270;10.546;2023-02-03T00:34:48;100999.09;;;13.38;98.37
54455;BME280;40364;52.270;10.546;2023-02-03T00:37:15;100996.19;;;13.22;95.37
54455;BME280;40364;52.270;10.546;2023-02-03T00:39:42;100994.31;;;12.77;100.00
54455;BME280;40364;52.270;10.546;2023-02-03T00:42:10;100991.53;;;12.32;100.00
54455;BME280;40364;52.270;10.546;2023-02-03T00:44:36;100975.25;;;12.34;100.00
54455;BME280;40364;52.270;10.546;2023-02-03T00:47:03;100967.38;;;12.85;100.00
54455;BME280;40364;52.270;10.546;2023-02-03T00:49:30;100976.06;;;13.97;93.45
54455;BME280;40364;52.270;10.546;2023-02-03T00:51:57;100992.69;;;13.13;99.90
54455;BME280;40364;52.270;10.546;2023-02-03T00:54:23;100992.34;;;13.02;96.32
54455;BME280;40364;52.270;10.546;2023-02-03T00:56:50;100982.94;;;13.59;97.94
54455;BME280;40364;52.270;10.546;2023-02-03T00:59:18;100978.44;;;12.57;100.00
54455;BME280;40364;52.270;10.546;2023-02-03T01:01:45;100980.47;;;13.18;100.00
54455;BME280;40364;52.270;10.546;2023-02-03T01:04:14;100979.88;;;13.36;100.00
54455;BME280;40364;52.270;10.546;2023-02-03T01:06:40;100982.44;;;12.93;100.00
54455;BME280;40364;52.270;10.546;2023-02-03T01:09:07;100974.97;;;13.21;99.94
54455;BME280;40364;52.270;10.546;2023-02-03T01:11:34;100976.56;;;13.46;97.68
54455;BME280;40364;52.270;10.546;2023-02-03T01:14:01;100966.88;;;14.12;95.45
54455;BME280;40364;52.270;10.546;2023-02-03T01:16:29;100974.06;;;13.69;96.29
54455;BME280;40364;52.270;10.546;2023-02-03T01:19:00;100967.28;;;13.18;100.00
54455;BME280;40364;52.270;10.546;2023-02-03T01:21:27;100954.13;;;14.14;91.99
54455;BME280;40364;52.270;10.546;2023-02-03T01:23:53;100948.97;;;13.33;100.00
54455;BME280;40364;52.270;10.546;2023-02-03T01:26:22;100951.66;;;13.17;100.00
54455;BME280;40364;52.270;10.546;2023-02-03T01:28:52;100950.63;;;12.85;100.00
54455;BME280;40364;52.270;10.546;2023-02-03T01:31:21;100951.81;;;13.89;98.71
54455;BME280;40364;52.270;10.546;2023-02-03T01:33:51;100952.00;;;14.24;98.12
54455;BME280;40364;52.270;10.546;2023-02-03T01:36:19;100966.06;;;14.71;90.35
54455;BME280;40364;52.270;10.546;2023-02-03T01:38:47;100961.16;;;14.36;93.60
54455;BME280;40364;52.270;10.546;2023-02-03T01:41:15;100960.53;;;14.74;88.97
54455;BME280;40364;52.270;10.546;2023-02-03T01:43:44;100953.69;;;13.57;98.19
54455;BME280;40364;52.270;10.546;2023-02-03T01:46:21;100953.81;;;14.32;97.32
54455;BME280;40364;52.270;10.546;2023-02-03T01:48:52;100950.06;;;13.56;100.00
54455;BME280;40364;52.270;10.546;2023-02-03T01:51:20;100944.00;;;14.10;99.25
54455;BME280;40364;52.270;10.546;2023-02-03T01:53:48;100928.34;;;14.37;97.55
54455;BME280;40364;52.270;10.546;2023-02-03T01:56:16;100943.94;;;15.16;91.72
54455;BME280;40364;52.270;10.546;2023-02-03T01:58:44;100936.84;;;14.72;91.11
54455;BME280;40364;52.270;10.546;2023-02-03T02:01:12;100943.31;;;14.29;98.94
54455;BME280;40364;52.270;10.546;2023-02-03T02:03:41;100933.25;;;14.56;97.61
54455;BME280;40364;52.270;10.546;2023-02-03T02:06:12;100932.78;;;15.20;92.80
54455;BME280;40364;52.270;10.546;2023-02-03T02:08:40;100922.38;;;15.21;90.16
54455;BME280;40364;52.270;10.546;2023-02-03T02:11:08;100914.38;;;14.40;96.61
54455;BME280;40364;52.270;10.546;2023-02-03T02:13:35;100918.72;;;11.92;100.00
54455;BME280;40364;52.270;10.546;2023-02-03T02:16:09;100915.09;;;11.38;100.00
54455;BME280;40364;52.270;10.546;2023-02-03T02:18:53;100898.00;;;11.39;100.00
54455;BME280;40364;52.270;10.546;2023-02-03T02:25:01;100898.34;;;12.49;100.00
54455;BME280;40364;52.270;10.546;2023-02-03T02:27:54;100899.56;;;13.80;100.00
54455;BME280;40364;52.270;10.546;2023-02-03T02:30:53;100886.13;;;13.86;100.00
54455;BME280;40364;52.270;10.546;2023-02-03T02:33:35;100865.25;;;13.83;100.00
54455;BME280;40364;52.270;10.546;2023-02-03T02:36:10;100867.41;;;13.46;100.00
54455;BME280;40364;52.270;10.546;2023-02-03T02:38:47;100873.72;;;13.99;100.00
54455;BME280;40364;52.270;10.546;2023-02-03T02:41:21;100857.22;;;13.38;100.00
54455;BME280;40364;52.270;10.546;2023-02-03T02:43:55;100856.53;;;13.57;100.00
54455;BME280;40364;52.270;10.546;2023-02-03T02:46:26;100851.16;;;13.64;100.00
54455;BME280;40364;52.270;10.546;2023-02-03T02:48:59;100852.97;;;13.72;100.00
54455;BME280;40364;52.270;10.546;2023-02-03T02:51:28;100838.19;;;13.44;100.00
54455;BME280;40364;52.270;10.546;2023-02-03T02:53:59;100825.34;;;13.87;100.00
54455;BME280;40364;52.270;10.546;2023-02-03T02:56:28;100823.28;;;14.31;100.00
54455;BME280;40364;52.270;10.546;2023-02-03T02:58:58;100808.22;;;13.44;100.00
54455;BME280;40364;52.270;10.546;2023-02-03T03:01:27;100804.75;;;13.35;100.00
54455;BME280;40364;52.270;10.546;2023-02-03T03:03:55;100787.97;;;13.35;100.00
54455;BME280;40364;52.270;10.546;2023-02-03T03:06:25;100779.59;;;13.51;100.00
54455;BME280;40364;52.270;10.546;2023-02-03T03:08:57;100789.38;;;13.57;100.00
54455;BME280;40364;52.270;10.546;2023-02-03T03:11:32;100776.06;;;13.38;100.00
54455;BME280;40364;52.270;10.546;2023-02-03T03:14:00;100780.31;;;12.92;100.00
54455;BME280;40364;52.270;10.546;2023-02-03T03:16:31;100790.59;;;13.16;100.00
54455;BME280;40364;52.270;10.546;2023-02-03T03:19:06;100805.19;;;12.69;100.00
54455;BME280;40364;52.270;10.546;2023-02-03T03:21:39;100804.06;;;12.09;100.00
54455;BME280;40364;52.270;10.546;2023-02-03T03:24:10;100814.13;;;11.77;100.00
54455;BME280;40364;52.270;10.546;2023-02-03T03:26:42;100815.06;;;11.94;100.00
54455;BME280;40364;52.270;10.546;2023-02-03T03:29:14;100824.66;;;12.17;100.00
54455;BME280;40364;52.270;10.546;2023-02-03T03:31:43;100820.22;;;12.16;100.00
54455;BME280;40364;52.270;10.546;2023-02-03T03:34:13;100818.59;;;12.15;100.00
54455;BME280;40364;52.270;10.546;2023-02-03T03:36:43;100810.69;;;12.17;100.00
54455;BME280;40364;52.270;10.546;2023-02-03T03:39:16;100812.66;;;12.29;100.00
54455;BME280;40364;52.270;10.546;2023-02-03T03:41:54;100796.66;;;13.46;100.00
54455;BME280;40364;52.270;10.546;2023-02-03T03:44:26;100788.00;;;12.43;100.00
54455;BME280;40364;52.270;10.546;2023-02-03T03:47:02;100796.44;;;13.67;100.00
54455;BME280;40364;52.270;10.546;2023-02-03T03:49:33;100797.53;;;13.94;100.00
54455;BME280;40364;52.270;10.546;2023-02-03T03:52:04;100784.34;;;13.94;98.35
54455;BME280;40364;52.270;10.546;2023-02-03T03:54:32;100793.09;;;12.53;100.00
54455;BME280;40364;52.270;10.546;2023-02-03T03:57:05;100793.69;;;12.10;100.00
54455;BME280;40364;52.270;10.546;2023-02-03T03:59:40;100772.41;;;12.05;100.00
54455;BME280;40364;52.270;10.546;2023-02-03T04:02:11;100779.72;;;12.10;100.00
54455;BME280;40364;52.270;10.546;2023-02-03T04:04:40;100770.19;;;11.87;100.00
54455;BME280;40364;52.270;10.546;2023-02-03T04:07:09;100783.59;;;11.60;100.00
54455;BME280;40364;52.270;10.546;2023-02-03T04:09:35;100790.56;;;12.88;100.00
54455;BME280;40364;52.270;10.546;2023-02-03T04:12:03;100796.31;;;15.12;100.00
54455;BME280;40364;52.270;10.546;2023-02-03T04:14:32;100781.09;;;16.69;73.42
54455;BME280;40364;52.270;10.546;2023-02-03T04:16:58;100787.41;;;16.89;70.33
54455;BME280;40364;52.270;10.546;2023-02-03T04:19:25;100776.06;;;17.49;64.52
54455;BME280;40364;52.270;10.546;2023-02-03T04:21:54;100774.09;;;15.23;78.86
54455;BME280;40364;52.270;10.546;2023-02-03T04:24:20;100763.59;;;14.62;86.28
54455;BME280;40364;52.270;10.546;2023-02-03T04:26:47;100749.38;;;13.88;92.06
54455;BME280;40364;52.270;10.546;2023-02-03T04:29:14;100746.41;;;14.63;87.34
54455;BME280;40364;52.270;10.546;2023-02-03T04:31:41;100755.19;;;14.62;84.86
54455;BME280;40364;52.270;10.546;2023-02-03T04:34:07;100752.88;;;14.16;89.46
54455;BME280;40364;52.270;10.546;2023-02-03T04:36:34;100741.91;;;14.59;83.23
54455;BME280;40364;52.270;10.546;2023-02-03T04:39:02;100754.44;;;14.14;86.39
54455;BME280;40364;52.270;10.546;2023-02-03T04:41:29;100762.00;;;15.19;79.78
54455;BME280;40364;52.270;10.546;2023-02-03T04:43:56;100757.84;;;15.12;79.70
54455;BME280;40364;52.270;10.546;2023-02-03T04:46:22;100753.94;;;14.78;78.78
54455;BME280;40364;52.270;10.546;2023-02-03T04:48:49;100759.31;;;14.17;84.96
54455;BME280;40364;52.270;10.546;2023-02-03T04:51:16;100761.06;;;13.74;86.87
54455;BME280;40364;52.270;10.546;2023-02-03T04:53:43;100755.63;;;13.81;87.75
54455;BME280;40364;52.270;10.546;2023-02-03T04:56:11;100767.53;;;14.96;80.08
54455;BME280;40364;52.270;10.546;2023-02-03T04:58:40;100750.13;;;14.87;79.90
54455;BME280;40364;52.270;10.546;2023-02-03T05:01:08;100740.41;;;14.14;84.44
54455;BME280;40364;52.270;10.546;2023-02-03T05:03:35;100729.50;;;14.09;84.67
54455;BME280;40364;52.270;10.546;2023-02-03T05:06:03;100731.78;;;13.88;88.91
54455;BME280;40364;52.270;10.546;2023-02-03T05:08:30;100730.50;;;14.01;86.32
54455;BME280;40364;52.270;10.546;2023-02-03T05:10:59;100726.63;;;14.75;80.57
54455;BME280;40364;52.270;10.546;2023-02-03T05:13:27;100724.16;;;15.32;78.81
54455;BME280;40364;52.270;10.546;2023-02-03T05:15:54;100719.56;;;14.62;79.86
54455;BME280;40364;52.270;10.546;2023-02-03T05:18:21;100702.03;;;14.49;81.64
54455;BME280;40364;52.270;10.546;2023-02-03T05:20:48;100713.31;;;14.18;84.62
54455;BME280;40364;52.270;10.546;2023-02-03T05:23:15;100702.84;;;10.86;100.00
54455;BME280;40364;52.270;10.546;2023-02-03T05:25:43;100698.72;;;11.49;100.00
54455;BME280;40364;52.270;10.546;2023-02-03T05:28:10;100695.41;;;12.85;100.00
54455;BME280;40364;52.270;10.546;2023-02-03T05:30:40;100683.59;;;11.62;100.00
54455;BME280;40364;52.270;10.546;2023-02-03T05:33:07;100690.84;;;12.00;100.00
54455;BME280;40364;52.270;10.546;2023-02-03T05:35:34;100693.75;;;12.03;100.00
54455;BME280;40364;52.270;10.546;2023-02-03T05:38:02;100684.69;;;11.94;100.00
54455;BME280;40364;52.270;10.546;2023-02-03T05:40:29;100692.28;;;11.82;100.00
54455;BME280;40364;52.270;10.546;2023-02-03T05:43:13;100659.44;;;12.15;100.00
54455;BME280;40364;52.270;10.546;2023-02-03T05:45:42;100667.03;;;11.90;100.00
54455;BME280;40364;52.270;10.546;2023-02-03T05:48:09;100657.13;;;12.05;100.00
54455;BME280;40364;52.270;10.546;2023-02-03T05:50:36;100648.25;;;12.15;100.00
54455;BME280;40364;52.270;10.546;2023-02-03T05:53:04;100659.44;;;12.15;100.00
54455;BME280;40364;52.270;10.546;2023-02-03T05:55:31;100664.56;;;12.01;100.00
54455;BME280;40364;52.270;10.546;2023-02-03T05:57:59;100662.28;;;11.91;100.00
54455;BME280;40364;52.270;10.546;2023-02-03T06:00:27;100649.22;;;11.95;100.00
54455;BME280;40364;52.270;10.546;2023-02-03T06:02:57;100652.00;;;12.47;100.00
54455;BME280;40364;52.270;10.546;2023-02-03T06:05:25;100671.47;;;12.43;100.00
54455;BME280;40364;52.270;10.546;2023-02-03T06:07:52;100664.88;;;12.24;100.00
54455;BME280;40364;52.270;10.546;2023-02-03T06:10:19;100671.41;;;12.56;100.00
54455;BME280;40364;52.270;10.546;2023-02-03T06:12:47;100662.06;;;12.36;100.00
54455;BME280;40364;52.270;10.546;2023-02-03T06:15:14;100664.69;;;13.00;98.35
54455;BME280;40364;52.270;10.546;2023-02-03T06:17:43;100675.22;;;13.82;86.81
54455;BME280;40364;52.270;10.546;2023-02-03T06:20:14;100660.69;;;12.58;100.00
54455;BME280;40364;52.270;10.546;2023-02-03T06:22:41;100658.28;;;12.04;100.00
54455;BME280;40364;52.270;10.546;2023-02-03T06:25:09;100665.00;;;12.55;100.00
54455;BME280;40364;52.270;10.546;2023-02-03T06:27:38;100666.50;;;12.25;100.00
54455;BME280;40364;52.270;10.546;2023-02-03T06:30:05;100666.69;;;12.44;100.00
54455;BME280;40364;52.270;10.546;2023-02-03T06:32:32;100677.47;;;12.58;100.00
54455;BME280;40364;52.270;10.546;2023-02-03T06:34:59;100663.50;;;12.05;100.00
54455;BME280;40364;52.270;10.546;2023-02-03T06:37:27;100671.53;;;13.46;98.97
54455;BME280;40364;52.270;10.546;2023-02-03T06:39:54;100660.19;;;13.55;93.34
54455;BME280;40364;52.270;10.546;2023-02-03T06:42:21;100661.16;;;13.47;93.01
54455;BME280;40364;52.270;10.546;2023-02-03T06:44:47;100654.13;;;13.53;91.13
54455;BME280;40364;52.270;10.546;2023-02-03T06:47:14;100647.00;;;13.71;91.94
54455;BME280;40364;52.270;10.546;2023-02-03T06:49:43;100654.50;;;13.67;90.05
54455;BME280;40364;52.270;10.546;2023-02-03T06:52:11;100647.44;;;13.73;92.28
54455;BME280;40364;52.270;10.546;2023-02-03T06:54:40;100620.22;;;13.39;93.04
54455;BME280;40364;52.270;10.546;2023-02-03T06:57:07;100638.03;;;13.19;96.91
54455;BME280;40364;52.270;10.546;2023-02-03T06:59:34;100618.16;;;12.36;100.00
54455;BME280;40364;52.270;10.546;2023-02-03T07:02:00;100622.97;;;12.24;100.00
54455;BME280;40364;52.270;10.546;2023-02-03T07:04:27;100626.47;;;13.04;100.00
54455;BME280;40364;52.270;10.546;2023-02-03T07:06:54;100629.22;;;13.64;97.62
54455;BME280;40364;52.270;10.546;2023-02-03T07:09:22;100610.16;;;13.22;100.00
54455;BME280;40364;52.270;10.546;2023-02-03T07:11:50;100606.00;;;13.16;100.00
54455;BME280;40364;52.270;10.546;2023-02-03T07:14:16;100606.09;;;14.02;93.15
54455;BME280;40364;52.270;10.546;2023-02-03T07:16:43;100602.56;;;14.05;95.61
54455;BME280;40364;52.270;10.546;2023-02-03T07:19:10;100604.84;;;13.64;96.66
54455;BME280;40364;52.270;10.546;2023-02-03T07:21:37;100617.50;;;14.28;89.32
54455;BME280;40364;52.270;10.546;2023-02-03T07:24:04;100583.66;;;13.82;95.96
54455;BME280;40364;52.270;10.546;2023-02-03T07:26:31;100585.34;;;13.21;100.00
54455;BME280;40364;52.270;10.546;2023-02-03T07:28:59;100585.09;;;13.41;100.00
54455;BME280;40364;52.270;10.546;2023-02-03T07:31:26;100598.13;;;12.90;100.00
54455;BME280;40364;52.270;10.546;2023-02-03T07:33:52;100602.16;;;12.77;100.00
54455;BME280;40364;52.270;10.546;2023-02-03T07:36:19;100587.22;;;13.48;100.00
54455;BME280;40364;52.270;10.546;2023-02-03T07:38:46;100619.22;;;13.98;94.72
54455;BME280;40364;52.270;10.546;2023-02-03T07:41:12;100616.03;;;14.34;93.41
54455;BME280;40364;52.270;10.546;2023-02-03T07:43:39;100592.69;;;13.41;100.00
54455;BME280;40364;52.270;10.546;2023-02-03T07:46:07;100600.34;;;13.44;100.00
54455;BME280;40364;52.270;10.546;2023-02-03T07:48:34;100596.91;;;13.35;100.00
54455;BME280;40364;52.270;10.546;2023-02-03T07:51:00;100588.88;;;13.84;98.20
54455;BME280;40364;52.270;10.546;2023-02-03T07:53:27;100577.59;;;13.14;100.00
54455;BME280;40364;52.270;10.546;2023-02-03T07:55:54;100600.31;;;13.12;100.00
54455;BME280;40364;52.270;10.546;2023-02-03T07:58:24;100565.13;;;12.80;100.00
54455;BME280;40364;52.270;10.546;2023-02-03T08:00:51;100571.97;;;12.98;100.00
54455;BME280;40364;52.270;10.546;2023-02-03T08:03:19;100569.00;;;12.91;100.00
54455;BME280;40364;52.270;10.546;2023-02-03T08:05:46;100555.66;;;13.16;100.00
54455;BME280;40364;52.270;10.546;2023-02-03T08:08:13;100563.59;;;13.14;100.00
54455;BME280;40364;52.270;10.546;2023-02-03T08:10:39;100560.97;;;12.74;100.00
54455;BME280;40364;52.270;10.546;2023-02-03T08:13:06;100567.75;;;13.20;100.00
54455;BME280;40364;52.270;10.546;2023-02-03T08:15:33;100568.72;;;12.96;100.00
54455;BME280;40364;52.270;10.546;2023-02-03T08:17:59;100569.38;;;13.21;100.00
54455;BME280;40364;52.270;10.546;2023-02-03T08:20:27;100558.53;;;12.88;100.00
54455;BME280;40364;52.270;10.546;2023-02-03T08:22:54;100582.09;;;13.19;100.00
54455;BME280;40364;52.270;10.546;2023-02-03T08:25:21;100574.78;;;12.82;100.00
54455;BME280;40364;52.270;10.546;2023-02-03T08:27:49;100573.59;;;13.62;100.00
54455;BME280;40364;52.270;10.546;2023-02-03T08:30:15;100575.88;;;13.09;100.00
54455;BME280;40364;52.270;10.546;2023-02-03T08:32:42;100577.06;;;13.24;100.00
54455;BME280;40364;52.270;10.546;2023-02-03T08:35:09;100580.47;;;13.18;100.00
54455;BME280;40364;52.270;10.546;2023-02-03T08:37:37;100565.03;;;12.92;100.00
54455;BME280;40364;52.270;10.546;2023-02-03T08:40:05;100579.28;;;13.03;100.00
54455;BME280;40364;52.270;10.546;2023-02-03T08:42:32;100531.63;;;12.68;100.00
54455;BME280;40364;52.270;10.546;2023-02-03T08:44:59;100573.97;;;13.61;100.00
54455;BME280;40364;52.270;10.546;2023-02-03T08:47:26;100565.66;;;13.01;100.00
54455;BME280;40364;52.270;10.546;2023-02-03T08:49:53;100545.75;;;13.19;100.00
54455;BME280;40364;52.270;10.546;2023-02-03T08:52:20;100557.94;;;13.26;100.00
54455;BME280;40364;52.270;10.546;2023-02-03T08:54:48;100548.09;;;13.17;100.00
54455;BME280;40364;52.270;10.546;2023-02-03T08:57:15;100568.53;;;13.52;100.00
54455;BME280;40364;52.270;10.546;2023-02-03T08:59:44;100540.50;;;13.33;100.00
54455;BME280;40364;52.270;10.546;2023-02-03T09:02:14;100531.34;;;13.67;100.00
54455;BME280;40364;52.270;10.546;2023-02-03T09:04:42;100522.00;;;13.44;100.00
54455;BME280;40364;52.270;10.546;2023-02-03T09:07:09;100524.66;;;13.56;100.00
54455;BME280;40364;52.270;10.546;2023-02-03T09:09:37;100534.03;;;14.18;99.94
54455;BME280;40364;52.270;10.546;2023-02-03T09:12:06;100543.16;;;13.61;100.00
54455;BME280;40364;52.270;10.546;2023-02-03T09:14:33;100533.50;;;13.58;100.00
54455;BME280;40364;52.270;10.546;2023-02-03T09:17:00;100529.59;;;13.12;100.00
54455;BME280;40364;52.270;10.546;2023-02-03T09:19:28;100552.31;;;13.10;100.00
54455;BME280;40364;52.270;10.546;2023-02-03T09:21:55;100541.03;;;12.91;100.00
54455;BME280;40364;52.270;10.546;2023-02-03T09:24:23;100532.84;;;12.98;100.00
54455;BME280;40364;52.270;10.546;2023-02-03T09:26:49;100541.00;;;12.60;100.00
54455;BME280;40364;52.270;10.546;2023-02-03T09:29:18;100537.31;;;12.87;100.00
54455;BME280;40364;52.270;10.546;2023-02-03T09:31:47;100545.63;;;12.99;100.00
54455;BME280;40364;52.270;10.546;2023-02-03T09:34:17;100548.06;;;12.69;100.00
54455;BME280;40364;52.270;10.546;2023-02-03T09:36:43;100563.59;;;12.82;100.00
54455;BME280;40364;52.270;10.546;2023-02-03T09:39:10;100553.88;;;12.21;100.00
54455;BME280;40364;52.270;10.546;2023-02-03T09:41:50;100545.41;;;12.61;100.00
54455;BME280;40364;52.270;10.546;2023-02-03T09:44:28;100527.56;;;12.50;100.00
54455;BME280;40364;52.270;10.546;2023-02-03T09:47:00;100544.81;;;12.67;100.00
54455;BME280;40364;52.270;10.546;2023-02-03T09:49:35;100544.91;;;12.71;100.00
54455;BME280;40364;52.270;10.546;2023-02-03T09:52:08;100519.13;;;12.77;100.00
54455;BME280;40364;52.270;10.546;2023-02-03T09:54:41;100522.63;;;12.90;100.00
54455;BME280;40364;52.270;10.546;2023-02-03T09:57:13;100543.38;;;13.05;100.00
54455;BME280;40364;52.270;10.546;2023-02-03T09:59:44;100540.75;;;12.96;100.00
54455;BME280;40364;52.270;10.546;2023-02-03T10:02:22;100536.63;;;13.22;100.00
54455;BME280;40364;52.270;10.546;2023-02-03T10:04:57;100545.75;;;13.03;100.00
54455;BME280;40364;52.270;10.546;2023-02-03T10:07:30;100538.03;;;12.84;100.00
54455;BME280;40364;52.270;10.546;2023-02-03T10:10:08;100568.38;;;12.82;100.00
54455;BME280;40364;52.270;10.546;2023-02-03T10:12:54;100550.25;;;13.07;100.00
54455;BME280;40364;52.270;10.546;2023-02-03T10:15:40;100546.00;;;12.82;100.00
54455;BME280;40364;52.270;10.546;2023-02-03T10:18:13;100531.84;;;16.58;90.97
54455;BME280;40364;52.270;10.546;2023-02-03T10:20:44;100552.31;;;16.25;90.73
54455;BME280;40364;52.270;10.546;2023-02-03T10:23:14;100545.91;;;15.41;93.68
54455;BME280;40364;52.270;10.546;2023-02-03T10:25:44;100552.38;;;15.68;94.26
54455;BME280;40364;52.270;10.546;2023-02-03T10:28:17;100566.78;;;15.67;93.21
54455;BME280;40364;52.270;10.546;2023-02-03T10:30:49;100563.72;;;16.35;85.44
54455;BME280;40364;52.270;10.546;2023-02-03T10:33:18;100556.94;;;15.31;92.69
54455;BME280;40364;52.270;10.546;2023-02-03T10:35:49;100588.16;;;16.31;84.73
54455;BME280;40364;52.270;10.546;2023-02-03T10:38:29;100564.34;;;15.92;85.06
54455;BME280;40364;52.270;10.546;2023-02-03T10:41:01;100565.66;;;15.71;87.33
54455;BME280;40364;52.270;10.546;2023-02-03T10:43:30;100564.38;;;16.25;81.95
54455;BME280;40364;52.270;10.546;2023-02-03T10:46:15;100583.75;;;16.64;86.23
54455;BME280;40364;52.270;10.546;2023-02-03T10:48:42;100599.72;;;16.26;86.01
54455;BME280;40364;52.270;10.546;2023-02-03T10:51:17;100645.88;;;16.25;89.27
54455;BME280;40364;52.270;10.546;2023-02-03T10:53:45;100618.44;;;13.81;100.00
54455;BME280;40364;52.270;10.546;2023-02-03T10:56:13;100613.91;;;12.82;100.00
54455;BME280;40364;52.270;10.546;2023-02-03T10:58:46;100617.34;;;12.64;100.00
54455;BME280;40364;52.270;10.546;2023-02-03T11:01:16;100602.13;;;13.21;100.00
54455;BME280;40364;52.270;10.546;2023-02-03T11:03:54;100594.28;;;13.58;100.00
54455;BME280;40364;52.270;10.546;2023-02-03T11:06:22;100602.31;;;14.68;100.00
54455;BME280;40364;52.270;10.546;2023-02-03T11:08:50;100597.16;;;13.45;100.00
54455;BME280;40364;52.270;10.546;2023-02-03T11:11:21;100622.56;;;13.37;100.00
54455;BME280;40364;52.270;10.546;2023-02-03T11:13:52;100647.34;;;14.40;100.00
54455;BME280;40364;52.270;10.546;2023-02-03T11:16:20;100635.25;;;12.47;100.00
54455;BME280;40364;52.270;10.546;2023-02-03T11:18:56;100647.13;;;12.72;100.00
54455;BME280;40364;52.270;10.546;2023-02-03T11:21:27;100643.69;;;12.63;100.00
54455;BME280;40364;52.270;10.546;2023-02-03T11:24:07;100639.63;;;15.56;88.80
54455;BME280;40364;52.270;10.546;2023-02-03T11:26:39;100653.50;;;14.45;99.62
54455;BME280;40364;52.270;10.546;2023-02-03T11:29:15;100655.56;;;13.63;100.00
54455;BME280;40364;52.270;10.546;2023-02-03T11:31:46;100643.53;;;12.71;100.00
54455;BME280;40364;52.270;10.546;2023-02-03T11:34:15;100652.16;;;12.94;100.00
54455;BME280;40364;52.270;10.546;2023-02-03T11:36:43;100638.28;;;12.42;100.00
54455;BME280;40364;52.270;10.546;2023-02-03T11:39:24;100637.09;;;12.83;96.14
54455;BME280;40364;52.270;10.546;2023-02-03T11:41:52;100615.47;;;13.74;97.98
54455;BME280;40364;52.270;10.546;2023-02-03T11:44:21;100639.66;;;12.20;100.00
54455;BME280;40364;52.270;10.546;2023-02-03T11:46:53;100640.97;;;12.38;100.00
54455;BME280;40364;52.270;10.546;2023-02-03T11:49:53;100637.78;;;12.80;100.00
54455;BME280;40364;52.270;10.546;2023-02-03T11:52:40;100681.38;;;12.69;100.00
54455;BME280;40364;52.270;10.546;2023-02-03T11:55:19;100655.66;;;12.91;100.00
54455;BME280;40364;52.270;10.546;2023-02-03T11:57:56;100658.25;;;12.84;100.00
54455;BME280;40364;52.270;10.546;2023-02-03T12:00:35;100661.91;;;12.44;100.00
54455;BME280;40364;52.270;10.546;2023-02-03T12:03:23;100653.53;;;13.00;100.00
54455;BME280;40364;52.270;10.546;2023-02-03T12:06:04;100651.81;;;12.68;100.00
54455;BME280;40364;52.270;10.546;2023-02-03T12:08:44;100642.81;;;13.18;100.00
54455;BME280;40364;52.270;10.546;2023-02-03T12:11:27;100654.03;;;12.34;100.00
54455;BME280;40364;52.270;10.546;2023-02-03T12:14:13;100657.69;;;12.10;100.00
54455;BME280;40364;52.270;10.546;2023-02-03T12:19:50;100654.03;;;13.65;100.00
54455;BME280;40364;52.270;10.546;2023-02-03T12:22:25;100660.97;;;10.20;100.00
54455;BME280;40364;52.270;10.546;2023-02-03T12:24:59;100646.38;;;9.72;100.00
54455;BME280;40364;52.270;10.546;2023-02-03T12:27:40;100658.66;;;9.71;100.00
54455;BME280;40364;52.270;10.546;2023-02-03T12:30:16;100671.22;;;10.28;100.00
54455;BME280;40364;52.270;10.546;2023-02-03T12:32:49;100669.00;;;9.62;100.00
54455;BME280;40364;52.270;10.546;2023-02-03T12:35:21;100667.44;;;12.57;100.00
54455;BME280;40364;52.270;10.546;2023-02-03T12:37:54;100693.06;;;12.87;100.00
54455;BME280;40364;52.270;10.546;2023-02-03T12:40:29;100690.22;;;13.90;100.00
54455;BME280;40364;52.270;10.546;2023-02-03T12:43:09;100707.84;;;12.59;100.00
54455;BME280;40364;52.270;10.546;2023-02-03T12:45:41;100693.94;;;13.62;97.68
54455;BME280;40364;52.270;10.546;2023-02-03T12:48:14;100718.91;;;13.24;100.00
54455;BME280;40364;52.270;10.546;2023-02-03T12:50:49;100709.38;;;13.88;98.25
54455;BME280;40364;52.270;10.546;2023-02-03T12:53:21;100694.03;;;13.50;93.54